sensor_id;sensor_type;location;lat;lon;timestamp;P1;durP1;ratioP1;P2;durP2;ratioP2
26040;SDS011;13816;53.628;9.950;2023-02-03T00:00:05;9.20;;;6.53;;
26040;SDS011;13816;53.628;9.950;2023-02-03T00:02:36;10.27;;;6.20;;
26040;SDS011;13816;53.628;9.950;2023-02-03T00:05:02;6.90;;;6.20;;
26040;SDS011;13816;53.628;9.950;2023-02-03T00:07:28;9.30;;;6.33;;
26040;SDS011;13816;53.628;9.950;2023-02-03T00:09:55;14.70;;;6.77;;
26040;SDS011;13816;53.628;9.950;2023-02-03T00:12:22;7.60;;;6.77;;
26040;SDS011;13816;53.628;9.950;2023-02-03T00:14:48;9.77;;;7.23;;
26040;SDS011;13816;53.628;9.950;2023-02-03T00:17:14;9.80;;;7.57;;
26040;SDS011;13816;53.628;9.950;2023-02-03T00:19:40;7.83;;;6.60;;
26040;SDS011;13816;53.628;9.950;2023-02-03T00:22:07;10.40;;;7.90;;
26040;SDS011;13816;53.628;9.950;2023-02-03T00:24:33;13.23;;;8.20;;
26040;SDS011;13816;53.628;9.950;2023-02-03T00:26:59;9.27;;;8.00;;
26040;SDS011;13816;53.628;9.950;2023-02-03T00:29:25;10.53;;;8.60;;
26040;SDS011;13816;53.628;9.950;2023-02-03T00:31:52;7.90;;;6.60;;
26040;SDS011;13816;53.628;9.950;2023-02-03T00:34:19;10.87;;;8.27;;
26040;SDS011;13816;53.628;9.950;2023-02-03T00:36:52;9.93;;;8.23;;
26040;SDS011;13816;53.628;9.950;2023-02-03T00:39:18;10.70;;;7.67;;
26040;SDS011;13816;53.628;9.950;2023-02-03T00:41:45;9.60;;;7.83;;
26040;SDS011;13816;53.628;9.950;2023-02-03T00:44:11;10.07;;;7.40;;
26040;SDS011;13816;53.628;9.950;2023-02-03T00:46:37;11.37;;;8.13;;
26040;SDS011;13816;53.628;9.950;2023-02-03T00:49:04;12.07;;;8.30;;
26040;SDS011;13816;53.628;9.950;2023-02-03T00:51:33;11.00;;;8.17;;
26040;SDS011;13816;53.628;9.950;2023-02-03T00:54:02;13.13;;;9.03;;
26040;SDS011;13816;53.628;9.950;2023-02-03T00:56:28;10.73;;;7.90;;
26040;SDS011;13816;53.628;9.950;2023-02-03T00:58:54;14.53;;;9.07;;
26040;SDS011;13816;53.628;9.950;2023-02-03T01:01:20;15.87;;;10.40;;
26040;SDS011;13816;53.628;9.950;2023-02-03T01:03:48;16.70;;;8.90;;
26040;SDS011;13816;53.628;9.950;2023-02-03T01:06:15;15.80;;;8.80;;
26040;SDS011;13816;53.628;9.950;2023-02-03T01:08:42;13.77;;;9.47;;
26040;SDS011;13816;53.628;9.950;2023-02-03T01:11:10;15.60;;;9.53;;
26040;SDS011;13816;53.628;9.950;2023-02-03T01:13:39;19.43;;;8.60;;
26040;SDS011;13816;53.628;9.950;2023-02-03T01:16:07;21.57;;;9.13;;
26040;SDS011;13816;53.628;9.950;2023-02-03T01:18:34;24.23;;;10.40;;
26040;SDS011;13816;53.628;9.950;2023-02-03T01:21:06;19.27;;;9.37;;
26040;SDS011;13816;53.628;9.950;2023-02-03T01:23:33;20.53;;;8.63;;
26040;SDS011;13816;53.628;9.950;2023-02-03T01:26:03;16.90;;;9.47;;
26040;SDS011;13816;53.628;9.950;2023-02-03T01:28:30;15.97;;;8.60;;
26040;SDS011;13816;53.628;9.950;2023-02-03T01:30:56;22.43;;;9.23;;
26040;SDS011;13816;53.628;9.950;2023-02-03T01:33:22;14.70;;;9.93;;
26040;SDS011;13816;53.628;9.950;2023-02-03T01:35:48;13.57;;;7.50;;
26040;SDS011;13816;53.628;9.950;2023-02-03T01:38:18;15.33;;;9.20;;
26040;SDS011;13816;53.628;9.950;2023-02-03T01:40:44;21.07;;;10.03;;
26040;SDS011;13816;53.628;9.950;2023-02-03T01:43:26;18.07;;;8.90;;
26040;SDS011;13816;53.628;9.950;2023-02-03T01:45:59;19.63;;;8.37;;
26040;SDS011;13816;53.628;9.950;2023-02-03T01:48:27;15.13;;;7.53;;
26040;SDS011;13816;53.628;9.950;2023-02-03T01:50:53;18.63;;;8.37;;
26040;SDS011;13816;53.628;9.950;2023-02-03T01:53:20;13.20;;;7.50;;
26040;SDS011;13816;53.628;9.950;2023-02-03T01:55:47;15.10;;;7.10;;
26040;SDS011;13816;53.628;9.950;2023-02-03T01:58:22;12.37;;;6.70;;
26040;SDS011;13816;53.628;9.950;2023-02-03T02:01:13;17.97;;;7.63;;
26040;SDS011;13816;53.628;9.950;2023-02-03T02:03:50;14.23;;;6.23;;
26040;SDS011;13816;53.628;9.950;2023-02-03T02:06:18;12.53;;;6.27;;
26040;SDS011;13816;53.628;9.950;2023-02-03T02:08:45;15.70;;;6.23;;
26040;SDS011;13816;53.628;9.950;2023-02-03T02:11:12;13.60;;;6.40;;
26040;SDS011;13816;53.628;9.950;2023-02-03T02:13:43;16.43;;;7.27;;
26040;SDS011;13816;53.628;9.950;2023-02-03T02:32:11;16.90;;;6.60;;
26040;SDS011;13816;53.628;9.950;2023-02-03T02:40:18;17.97;;;7.17;;
26040;SDS011;13816;53.628;9.950;2023-02-03T02:45:47;16.30;;;6.53;;
26040;SDS011;13816;53.628;9.950;2023-02-03T02:48:09;9.80;;;5.27;;
26040;SDS011;13816;53.628;9.950;2023-02-03T02:50:40;14.07;;;5.70;;
26040;SDS011;13816;53.628;9.950;2023-02-03T02:53:08;10.40;;;5.53;;
26040;SDS011;13816;53.628;9.950;2023-02-03T02:55:36;23.60;;;6.80;;
26040;SDS011;13816;53.628;9.950;2023-02-03T02:58:09;14.73;;;6.00;;
26040;SDS011;13816;53.628;9.950;2023-02-03T03:00:37;6.40;;;4.00;;
26040;SDS011;13816;53.628;9.950;2023-02-03T03:03:21;13.53;;;4.97;;
26040;SDS011;13816;53.628;9.950;2023-02-03T03:05:50;10.43;;;5.63;;
26040;SDS011;13816;53.628;9.950;2023-02-03T03:08:22;9.53;;;4.40;;
26040;SDS011;13816;53.628;9.950;2023-02-03T03:10:49;13.87;;;4.70;;
26040;SDS011;13816;53.628;9.950;2023-02-03T03:13:19;9.10;;;4.13;;
26040;SDS011;13816;53.628;9.950;2023-02-03T03:15:47;19.10;;;4.70;;
26040;SDS011;13816;53.628;9.950;2023-02-03T03:18:18;8.90;;;3.73;;
26040;SDS011;13816;53.628;9.950;2023-02-03T03:20:45;13.07;;;4.37;;
26040;SDS011;13816;53.628;9.950;2023-02-03T03:23:14;8.33;;;3.50;;
26040;SDS011;13816;53.628;9.950;2023-02-03T03:25:53;16.50;;;3.10;;
26040;SDS011;13816;53.628;9.950;2023-02-03T03:28:24;6.90;;;3.57;;
26040;SDS011;13816;53.628;9.950;2023-02-03T03:30:53;10.03;;;3.20;;
26040;SDS011;13816;53.628;9.950;2023-02-03T03:33:19;12.43;;;3.57;;
26040;SDS011;13816;53.628;9.950;2023-02-03T03:35:54;10.43;;;2.67;;
26040;SDS011;13816;53.628;9.950;2023-02-03T03:38:29;10.27;;;2.90;;
26040;SDS011;13816;53.628;9.950;2023-02-03T03:43:42;15.10;;;3.07;;
26040;SDS011;13816;53.628;9.950;2023-02-03T03:46:14;9.10;;;2.90;;
26040;SDS011;13816;53.628;9.950;2023-02-03T03:48:52;9.10;;;3.60;;
26040;SDS011;13816;53.628;9.950;2023-02-03T03:51:25;8.83;;;3.53;;
26040;SDS011;13816;53.628;9.950;2023-02-03T03:53:52;14.00;;;4.30;;
26040;SDS011;13816;53.628;9.950;2023-02-03T03:56:31;13.57;;;3.20;;
26040;SDS011;13816;53.628;9.950;2023-02-03T03:59:08;18.70;;;3.70;;
26040;SDS011;13816;53.628;9.950;2023-02-03T04:01:36;16.60;;;3.30;;
26040;SDS011;13816;53.628;9.950;2023-02-03T04:04:04;8.30;;;3.40;;
26040;SDS011;13816;53.628;9.950;2023-02-03T04:06:31;12.83;;;3.57;;
26040;SDS011;13816;53.628;9.950;2023-02-03T04:08:57;10.43;;;2.87;;
26040;SDS011;13816;53.628;9.950;2023-02-03T04:11:24;15.87;;;3.87;;
26040;SDS011;13816;53.628;9.950;2023-02-03T04:14:08;22.07;;;4.10;;
26040;SDS011;13816;53.628;9.950;2023-02-03T04:16:34;12.73;;;4.47;;
26040;SDS011;13816;53.628;9.950;2023-02-03T04:19:01;13.80;;;4.20;;
26040;SDS011;13816;53.628;9.950;2023-02-03T04:21:27;9.60;;;3.67;;
26040;SDS011;13816;53.628;9.950;2023-02-03T04:23:53;17.53;;;3.90;;
26040;SDS011;13816;53.628;9.950;2023-02-03T04:26:21;15.63;;;4.23;;
26040;SDS011;13816;53.628;9.950;2023-02-03T04:28:51;5.50;;;3.20;;
26040;SDS011;13816;53.628;9.950;2023-02-03T04:31:19;11.70;;;3.60;;
26040;SDS011;13816;53.628;9.950;2023-02-03T04:33:48;7.23;;;3.77;;
26040;SDS011;13816;53.628;9.950;2023-02-03T04:36:15;10.20;;;3.63;;
26040;SDS011;13816;53.628;9.950;2023-02-03T04:38:41;10.00;;;4.33;;
26040;SDS011;13816;53.628;9.950;2023-02-03T04:41:07;6.27;;;4.33;;
26040;SDS011;13816;53.628;9.950;2023-02-03T04:43:33;11.03;;;3.90;;
26040;SDS011;13816;53.628;9.950;2023-02-03T04:45:59;7.70;;;4.60;;
26040;SDS011;13816;53.628;9.950;2023-02-03T04:48:26;13.60;;;4.80;;
26040;SDS011;13816;53.628;9.950;2023-02-03T04:50:52;14.70;;;4.67;;
26040;SDS011;13816;53.628;9.950;2023-02-03T04:53:18;13.27;;;4.67;;
26040;SDS011;13816;53.628;9.950;2023-02-03T04:55:47;14.60;;;4.80;;
26040;SDS011;13816;53.628;9.950;2023-02-03T04:58:13;8.47;;;5.33;;
26040;SDS011;13816;53.628;9.950;2023-02-03T05:00:39;6.20;;;4.50;;
26040;SDS011;13816;53.628;9.950;2023-02-03T05:05:57;6.80;;;4.47;;
26040;SDS011;13816;53.628;9.950;2023-02-03T05:08:23;10.70;;;4.73;;
26040;SDS011;13816;53.628;9.950;2023-02-03T05:10:50;9.23;;;4.30;;
26040;SDS011;13816;53.628;9.950;2023-02-03T05:13:16;11.43;;;4.77;;
26040;SDS011;13816;53.628;9.950;2023-02-03T05:15:42;17.50;;;4.63;;
26040;SDS011;13816;53.628;9.950;2023-02-03T05:18:08;9.37;;;4.67;;
26040;SDS011;13816;53.628;9.950;2023-02-03T05:20:34;7.60;;;4.50;;
26040;SDS011;13816;53.628;9.950;2023-02-03T05:23:00;9.97;;;4.63;;
26040;SDS011;13816;53.628;9.950;2023-02-03T05:25:26;13.87;;;6.20;;
26040;SDS011;13816;53.628;9.950;2023-02-03T05:27:52;11.97;;;5.60;;
26040;SDS011;13816;53.628;9.950;2023-02-03T05:30:19;9.13;;;5.40;;
26040;SDS011;13816;53.628;9.950;2023-02-03T05:32:45;10.63;;;5.90;;
26040;SDS011;13816;53.628;9.950;2023-02-03T05:35:11;9.00;;;4.90;;
26040;SDS011;13816;53.628;9.950;2023-02-03T05:37:43;8.47;;;5.10;;
26040;SDS011;13816;53.628;9.950;2023-02-03T05:40:10;9.27;;;5.53;;
26040;SDS011;13816;53.628;9.950;2023-02-03T05:42:55;8.60;;;4.73;;
26040;SDS011;13816;53.628;9.950;2023-02-03T05:45:22;9.40;;;4.13;;
26040;SDS011;13816;53.628;9.950;2023-02-03T05:47:48;10.13;;;4.20;;
26040;SDS011;13816;53.628;9.950;2023-02-03T05:50:14;8.53;;;4.00;;
26040;SDS011;13816;53.628;9.950;2023-02-03T05:52:41;13.07;;;4.23;;
26040;SDS011;13816;53.628;9.950;2023-02-03T05:55:07;8.13;;;3.97;;
26040;SDS011;13816;53.628;9.950;2023-02-03T05:57:33;7.40;;;3.90;;
26040;SDS011;13816;53.628;9.950;2023-02-03T06:00:05;9.60;;;5.03;;
26040;SDS011;13816;53.628;9.950;2023-02-03T06:02:36;11.70;;;3.60;;
26040;SDS011;13816;53.628;9.950;2023-02-03T06:05:03;8.90;;;3.23;;
26040;SDS011;13816;53.628;9.950;2023-02-03T06:07:29;13.57;;;4.10;;
26040;SDS011;13816;53.628;9.950;2023-02-03T06:09:55;8.17;;;3.53;;
26040;SDS011;13816;53.628;9.950;2023-02-03T06:12:21;8.53;;;3.40;;
26040;SDS011;13816;53.628;9.950;2023-02-03T06:14:47;9.20;;;3.47;;
26040;SDS011;13816;53.628;9.950;2023-02-03T06:17:13;7.90;;;3.47;;
26040;SDS011;13816;53.628;9.950;2023-02-03T06:19:39;13.70;;;3.17;;
26040;SDS011;13816;53.628;9.950;2023-02-03T06:22:48;7.07;;;2.80;;
26040;SDS011;13816;53.628;9.950;2023-02-03T06:25:15;2.93;;;1.90;;
26040;SDS011;13816;53.628;9.950;2023-02-03T06:27:41;6.47;;;2.90;;
26040;SDS011;13816;53.628;9.950;2023-02-03T06:30:07;13.10;;;3.23;;
26040;SDS011;13816;53.628;9.950;2023-02-03T06:32:34;6.63;;;2.80;;
26040;SDS011;13816;53.628;9.950;2023-02-03T06:35:00;8.53;;;2.97;;
26040;SDS011;13816;53.628;9.950;2023-02-03T06:37:29;12.30;;;3.67;;
26040;SDS011;13816;53.628;9.950;2023-02-03T06:39:56;13.10;;;3.70;;
26040;SDS011;13816;53.628;9.950;2023-02-03T06:42:22;11.70;;;3.57;;
26040;SDS011;13816;53.628;9.950;2023-02-03T06:44:54;19.03;;;4.07;;
26040;SDS011;13816;53.628;9.950;2023-02-03T06:47:21;9.93;;;2.73;;
26040;SDS011;13816;53.628;9.950;2023-02-03T06:49:47;10.83;;;4.13;;
26040;SDS011;13816;53.628;9.950;2023-02-03T06:52:14;18.30;;;4.20;;
26040;SDS011;13816;53.628;9.950;2023-02-03T06:54:44;12.53;;;3.63;;
26040;SDS011;13816;53.628;9.950;2023-02-03T06:57:10;12.50;;;3.83;;
26040;SDS011;13816;53.628;9.950;2023-02-03T06:59:49;14.65;;;4.60;;
26040;SDS011;13816;53.628;9.950;2023-02-03T07:02:19;13.73;;;4.70;;
26040;SDS011;13816;53.628;9.950;2023-02-03T07:04:45;15.97;;;4.90;;
26040;SDS011;13816;53.628;9.950;2023-02-03T07:07:11;14.70;;;3.60;;
26040;SDS011;13816;53.628;9.950;2023-02-03T07:09:38;15.40;;;3.70;;
26040;SDS011;13816;53.628;9.950;2023-02-03T07:12:28;12.80;;;3.23;;
26040;SDS011;13816;53.628;9.950;2023-02-03T07:14:54;18.70;;;3.53;;
26040;SDS011;13816;53.628;9.950;2023-02-03T07:17:20;11.77;;;3.67;;
26040;SDS011;13816;53.628;9.950;2023-02-03T07:19:46;20.60;;;4.40;;
26040;SDS011;13816;53.628;9.950;2023-02-03T07:22:13;18.50;;;3.60;;
26040;SDS011;13816;53.628;9.950;2023-02-03T07:24:39;22.93;;;3.87;;
26040;SDS011;13816;53.628;9.950;2023-02-03T07:27:05;17.40;;;4.10;;
26040;SDS011;13816;53.628;9.950;2023-02-03T07:29:31;20.53;;;3.60;;
26040;SDS011;13816;53.628;9.950;2023-02-03T07:31:57;24.13;;;4.20;;
26040;SDS011;13816;53.628;9.950;2023-02-03T07:34:35;16.23;;;3.10;;
26040;SDS011;13816;53.628;9.950;2023-02-03T07:37:13;19.10;;;3.07;;
26040;SDS011;13816;53.628;9.950;2023-02-03T07:39:39;19.70;;;3.60;;
26040;SDS011;13816;53.628;9.950;2023-02-03T07:42:25;15.70;;;2.87;;
26040;SDS011;13816;53.628;9.950;2023-02-03T07:44:58;12.27;;;3.10;;
26040;SDS011;13816;53.628;9.950;2023-02-03T07:47:24;20.00;;;4.33;;
26040;SDS011;13816;53.628;9.950;2023-02-03T07:49:50;10.90;;;3.23;;
26040;SDS011;13816;53.628;9.950;2023-02-03T07:52:24;11.47;;;2.83;;
26040;SDS011;13816;53.628;9.950;2023-02-03T07:54:50;13.30;;;3.70;;
26040;SDS011;13816;53.628;9.950;2023-02-03T07:57:16;14.00;;;3.37;;
26040;SDS011;13816;53.628;9.950;2023-02-03T07:59:46;14.17;;;3.90;;
26040;SDS011;13816;53.628;9.950;2023-02-03T08:02:13;17.10;;;3.73;;
26040;SDS011;13816;53.628;9.950;2023-02-03T08:04:39;17.37;;;4.40;;
26040;SDS011;13816;53.628;9.950;2023-02-03T08:07:06;30.10;;;4.77;;
26040;SDS011;13816;53.628;9.950;2023-02-03T08:09:35;18.43;;;3.37;;
26040;SDS011;13816;53.628;9.950;2023-02-03T08:15:11;16.63;;;3.10;;
26040;SDS011;13816;53.628;9.950;2023-02-03T08:17:59;17.33;;;3.60;;
26040;SDS011;13816;53.628;9.950;2023-02-03T08:20:28;16.47;;;3.47;;
26040;SDS011;13816;53.628;9.950;2023-02-03T08:23:01;18.00;;;3.90;;
26040;SDS011;13816;53.628;9.950;2023-02-03T08:26:04;20.97;;;4.60;;
26040;SDS011;13816;53.628;9.950;2023-02-03T08:28:31;23.73;;;4.90;;
26040;SDS011;13816;53.628;9.950;2023-02-03T08:30:59;19.77;;;4.13;;
26040;SDS011;13816;53.628;9.950;2023-02-03T08:33:26;20.67;;;4.57;;
26040;SDS011;13816;53.628;9.950;2023-02-03T08:35:57;13.80;;;3.87;;
26040;SDS011;13816;53.628;9.950;2023-02-03T08:38:34;27.23;;;5.53;;
26040;SDS011;13816;53.628;9.950;2023-02-03T08:41:00;28.63;;;4.93;;
26040;SDS011;13816;53.628;9.950;2023-02-03T08:43:32;36.33;;;6.00;;
26040;SDS011;13816;53.628;9.950;2023-02-03T08:46:05;30.10;;;4.73;;
26040;SDS011;13816;53.628;9.950;2023-02-03T08:48:35;19.80;;;4.23;;
26040;SDS011;13816;53.628;9.950;2023-02-03T08:51:01;41.13;;;7.50;;
26040;SDS011;13816;53.628;9.950;2023-02-03T08:54:06;37.00;;;7.07;;
26040;SDS011;13816;53.628;9.950;2023-02-03T08:56:32;32.70;;;5.97;;
26040;SDS011;13816;53.628;9.950;2023-02-03T09:01:34;25.93;;;5.20;;
26040;SDS011;13816;53.628;9.950;2023-02-03T09:04:01;29.60;;;6.97;;
26040;SDS011;13816;53.628;9.950;2023-02-03T09:06:39;33.90;;;6.47;;
26040;SDS011;13816;53.628;9.950;2023-02-03T09:09:05;29.60;;;6.40;;
26040;SDS011;13816;53.628;9.950;2023-02-03T09:11:31;29.67;;;7.03;;
26040;SDS011;13816;53.628;9.950;2023-02-03T09:14:36;37.47;;;6.80;;
26040;SDS011;13816;53.628;9.950;2023-02-03T09:17:05;33.87;;;6.10;;
26040;SDS011;13816;53.628;9.950;2023-02-03T09:19:54;44.67;;;7.10;;
26040;SDS011;13816;53.628;9.950;2023-02-03T09:22:23;45.37;;;8.60;;
26040;SDS011;13816;53.628;9.950;2023-02-03T09:27:19;40.73;;;8.60;;
26040;SDS011;13816;53.628;9.950;2023-02-03T09:30:19;47.47;;;8.40;;
26040;SDS011;13816;53.628;9.950;2023-02-03T09:32:45;50.83;;;8.83;;
26040;SDS011;13816;53.628;9.950;2023-02-03T09:35:28;51.17;;;8.00;;
26040;SDS011;13816;53.628;9.950;2023-02-03T09:37:55;56.83;;;10.93;;
26040;SDS011;13816;53.628;9.950;2023-02-03T09:40:50;37.00;;;6.90;;
26040;SDS011;13816;53.628;9.950;2023-02-03T09:45:44;53.27;;;9.70;;
26040;SDS011;13816;53.628;9.950;2023-02-03T09:48:15;46.77;;;9.23;;
26040;SDS011;13816;53.628;9.950;2023-02-03T09:50:56;53.00;;;8.13;;
26040;SDS011;13816;53.628;9.950;2023-02-03T10:00:13;46.17;;;8.23;;
26040;SDS011;13816;53.628;9.950;2023-02-03T10:18:50;61.43;;;9.60;;
26040;SDS011;13816;53.628;9.950;2023-02-03T10:21:57;52.87;;;10.43;;
26040;SDS011;13816;53.628;9.950;2023-02-03T10:25:33;49.47;;;9.00;;
26040;SDS011;13816;53.628;9.950;2023-02-03T10:28:56;55.87;;;9.97;;
26040;SDS011;13816;53.628;9.950;2023-02-03T10:31:31;56.87;;;9.53;;
26040;SDS011;13816;53.628;9.950;2023-02-03T10:40:23;36.53;;;7.93;;
26040;SDS011;13816;53.628;9.950;2023-02-03T10:42:57;58.13;;;10.23;;
26040;SDS011;13816;53.628;9.950;2023-02-03T10:45:48;51.13;;;11.70;;
26040;SDS011;13816;53.628;9.950;2023-02-03T10:48:21;56.40;;;10.33;;
26040;SDS011;13816;53.628;9.950;2023-02-03T10:50:48;47.17;;;8.53;;
26040;SDS011;13816;53.628;9.950;2023-02-03T10:53:19;60.53;;;11.07;;
26040;SDS011;13816;53.628;9.950;2023-02-03T10:58:52;49.90;;;8.93;;
26040;SDS011;13816;53.628;9.950;2023-02-03T11:01:37;53.07;;;8.40;;
26040;SDS011;13816;53.628;9.950;2023-02-03T11:04:06;55.40;;;10.70;;
26040;SDS011;13816;53.628;9.950;2023-02-03T11:06:46;64.40;;;10.07;;
26040;SDS011;13816;53.628;9.950;2023-02-03T11:09:37;51.23;;;9.30;;
26040;SDS011;13816;53.628;9.950;2023-02-03T11:12:18;44.27;;;10.40;;
26040;SDS011;13816;53.628;9.950;2023-02-03T11:14:54;48.47;;;9.13;;
26040;SDS011;13816;53.628;9.950;2023-02-03T11:17:21;46.73;;;10.13;;
26040;SDS011;13816;53.628;9.950;2023-02-03T11:19:48;54.13;;;10.57;;
26040;SDS011;13816;53.628;9.950;2023-02-03T11:22:26;62.00;;;10.40;;
26040;SDS011;13816;53.628;9.950;2023-02-03T11:25:02;51.07;;;8.77;;
26040;SDS011;13816;53.628;9.950;2023-02-03T11:27:30;45.70;;;9.30;;
26040;SDS011;13816;53.628;9.950;2023-02-03T11:32:43;39.70;;;7.33;;
26040;SDS011;13816;53.628;9.950;2023-02-03T11:35:18;30.80;;;6.70;;
26040;SDS011;13816;53.628;9.950;2023-02-03T11:41:17;41.27;;;8.53;;
26040;SDS011;13816;53.628;9.950;2023-02-03T11:47:07;43.67;;;8.13;;
26040;SDS011;13816;53.628;9.950;2023-02-03T12:04:02;48.70;;;8.87;;
26040;SDS011;13816;53.628;9.950;2023-02-03T12:16:07;46.20;;;8.33;;
26040;SDS011;13816;53.628;9.950;2023-02-03T12:19:05;33.43;;;8.30;;
26040;SDS011;13816;53.628;9.950;2023-02-03T12:22:03;45.40;;;10.50;;
26040;SDS011;13816;53.628;9.950;2023-02-03T12:27:37;44.13;;;8.40;;
26040;SDS011;13816;53.628;9.950;2023-02-03T12:32:56;39.23;;;8.70;;
26040;SDS011;13816;53.628;9.950;2023-02-03T12:35:36;37.80;;;6.13;;
26040;SDS011;13816;53.628;9.950;2023-02-03T12:41:35;41.93;;;8.07;;
26040;SDS011;13816;53.628;9.950;2023-02-03T12:44:07;54.07;;;8.20;;
26040;SDS011;13816;53.628;9.950;2023-02-03T12:46:55;46.03;;;8.30;;
26040;SDS011;13816;53.628;9.950;2023-02-03T12:52:02;52.70;;;10.00;;
26040;SDS011;13816;53.628;9.950;2023-02-03T12:57:37;39.03;;;7.33;;
26040;SDS011;13816;53.628;9.950;2023-02-03T13:02:58;45.07;;;7.40;;
26040;SDS011;13816;53.628;9.950;2023-02-03T13:05:27;33.63;;;7.17;;
26040;SDS011;13816;53.628;9.950;2023-02-03T13:07:58;36.90;;;7.40;;
26040;SDS011;13816;53.628;9.950;2023-02-03T13:10:37;44.07;;;7.30;;
26040;SDS011;13816;53.628;9.950;2023-02-03T13:13:04;50.63;;;7.37;;
26040;SDS011;13816;53.628;9.950;2023-02-03T13:15:35;33.30;;;7.47;;
26040;SDS011;13816;53.628;9.950;2023-02-03T13:18:04;30.00;;;7.27;;
26040;SDS011;13816;53.628;9.950;2023-02-03T13:20:35;30.20;;;6.07;;
26040;SDS011;13816;53.628;9.950;2023-02-03T13:23:05;48.70;;;8.50;;
26040;SDS011;13816;53.628;9.950;2023-02-03T13:28:26;34.83;;;6.60;;
26040;SDS011;13816;53.628;9.950;2023-02-03T13:36:26;46.63;;;7.87;;
26040;SDS011;13816;53.628;9.950;2023-02-03T13:39:00;23.27;;;6.63;;
26040;SDS011;13816;53.628;9.950;2023-02-03T13:41:37;42.70;;;6.67;;
26040;SDS011;13816;53.628;9.950;2023-02-03T13:44:11;47.33;;;6.60;;
26040;SDS011;13816;53.628;9.950;2023-02-03T13:46:39;50.47;;;8.10;;
26040;SDS011;13816;53.628;9.950;2023-02-03T13:49:05;44.83;;;8.13;;
26040;SDS011;13816;53.628;9.950;2023-02-03T13:51:42;30.10;;;6.33;;
26040;SDS011;13816;53.628;9.950;2023-02-03T13:54:15;41.13;;;8.00;;
26040;SDS011;13816;53.628;9.950;2023-02-03T13:56:43;46.47;;;10.10;;
26040;SDS011;13816;53.628;9.950;2023-02-03T14:01:44;44.40;;;9.10;;
26040;SDS011;13816;53.628;9.950;2023-02-03T14:09:20;33.47;;;7.83;;
26040;SDS011;13816;53.628;9.950;2023-02-03T14:11:50;39.80;;;7.50;;
26040;SDS011;13816;53.628;9.950;2023-02-03T14:17:03;38.53;;;7.65;;
26040;SDS011;13816;53.628;9.950;2023-02-03T14:22:19;42.17;;;8.40;;
26040;SDS011;13816;53.628;9.950;2023-02-03T14:28:15;40.27;;;7.50;;
26040;SDS011;13816;53.628;9.950;2023-02-03T14:39:00;40.87;;;7.83;;
26040;SDS011;13816;53.628;9.950;2023-02-03T14:41:37;49.93;;;7.97;;
26040;SDS011;13816;53.628;9.950;2023-02-03T14:44:12;53.57;;;9.43;;
26040;SDS011;13816;53.628;9.950;2023-02-03T15:05:42;49.23;;;8.37;;
26040;SDS011;13816;53.628;9.950;2023-02-03T15:10:54;56.83;;;9.20;;
26040;SDS011;13816;53.628;9.950;2023-02-03T15:13:27;40.07;;;6.70;;
26040;SDS011;13816;53.628;9.950;2023-02-03T15:15:55;42.43;;;10.70;;
26040;SDS011;13816;53.628;9.950;2023-02-03T15:18:33;44.97;;;7.53;;
26040;SDS011;13816;53.628;9.950;2023-02-03T15:23:44;35.80;;;8.80;;
26040;SDS011;13816;53.628;9.950;2023-02-03T15:26:16;57.23;;;8.17;;
26040;SDS011;13816;53.628;9.950;2023-02-03T15:28:52;43.00;;;8.90;;
26040;SDS011;13816;53.628;9.950;2023-02-03T15:31:19;47.33;;;8.53;;
26040;SDS011;13816;53.628;9.950;2023-02-03T15:33:47;45.20;;;7.80;;
26040;SDS011;13816;53.628;9.950;2023-02-03T15:36:34;48.17;;;8.03;;
26040;SDS011;13816;53.628;9.950;2023-02-03T15:39:10;46.83;;;8.37;;
26040;SDS011;13816;53.628;9.950;2023-02-03T15:41:43;38.57;;;7.90;;
26040;SDS011;13816;53.628;9.950;2023-02-03T15:44:27;54.50;;;7.63;;
26040;SDS011;13816;53.628;9.950;2023-02-03T15:46:54;36.63;;;8.10;;
26040;SDS011;13816;53.628;9.950;2023-02-03T15:49:26;54.83;;;9.97;;
26040;SDS011;13816;53.628;9.950;2023-02-03T15:54:29;51.77;;;8.70;;
26040;SDS011;13816;53.628;9.950;2023-02-03T15:57:05;54.40;;;7.80;;
26040;SDS011;13816;53.628;9.950;2023-02-03T15:59:36;48.77;;;9.40;;
26040;SDS011;13816;53.628;9.950;2023-02-03T16:02:18;50.03;;;10.07;;
26040;SDS011;13816;53.628;9.950;2023-02-03T16:04:46;31.80;;;8.20;;
26040;SDS011;13816;53.628;9.950;2023-02-03T16:07:17;49.27;;;7.47;;
26040;SDS011;13816;53.628;9.950;2023-02-03T16:09:44;39.90;;;8.40;;
26040;SDS011;13816;53.628;9.950;2023-02-03T16:12:17;45.33;;;7.67;;
26040;SDS011;13816;53.628;9.950;2023-02-03T16:14:46;44.43;;;8.67;;
26040;SDS011;13816;53.628;9.950;2023-02-03T16:17:20;51.53;;;9.33;;
26040;SDS011;13816;53.628;9.950;2023-02-03T16:19:47;40.77;;;7.13;;
26040;SDS011;13816;53.628;9.950;2023-02-03T16:22:35;40.10;;;8.20;;
26040;SDS011;13816;53.628;9.950;2023-02-03T16:25:18;41.93;;;7.27;;
26040;SDS011;13816;53.628;9.950;2023-02-03T16:33:50;52.57;;;10.23;;
26040;SDS011;13816;53.628;9.950;2023-02-03T16:36:50;50.07;;;8.53;;
26040;SDS011;13816;53.628;9.950;2023-02-03T16:39:35;57.80;;;8.77;;
26040;SDS011;13816;53.628;9.950;2023-02-03T16:42:39;58.23;;;8.10;;
26040;SDS011;13816;53.628;9.950;2023-02-03T16:45:24;46.67;;;8.20;;
26040;SDS011;13816;53.628;9.950;2023-02-03T16:48:35;45.87;;;8.10;;
26040;SDS011;13816;53.628;9.950;2023-02-03T16:51:19;62.47;;;10.17;;
26040;SDS011;13816;53.628;9.950;2023-02-03T16:53:46;51.23;;;8.13;;
26040;SDS011;13816;53.628;9.950;2023-02-03T16:56:12;51.00;;;9.10;;
26040;SDS011;13816;53.628;9.950;2023-02-03T16:58:38;59.25;;;9.70;;
26040;SDS011;13816;53.628;9.950;2023-02-03T17:01:07;53.67;;;9.70;;
26040;SDS011;13816;53.628;9.950;2023-02-03T17:03:36;51.83;;;10.33;;
26040;SDS011;13816;53.628;9.950;2023-02-03T17:06:09;55.90;;;9.73;;
26040;SDS011;13816;53.628;9.950;2023-02-03T17:08:36;74.83;;;9.30;;
26040;SDS011;13816;53.628;9.950;2023-02-03T17:11:21;46.63;;;8.33;;
26040;SDS011;13816;53.628;9.950;2023-02-03T17:13:48;63.43;;;9.33;;
26040;SDS011;13816;53.628;9.950;2023-02-03T17:16:15;53.93;;;9.30;;
26040;SDS011;13816;53.628;9.950;2023-02-03T17:18:42;68.40;;;9.73;;
26040;SDS011;13816;53.628;9.950;2023-02-03T17:21:10;47.90;;;8.40;;
26040;SDS011;13816;53.628;9.950;2023-02-03T17:23:37;49.67;;;9.13;;
26040;SDS011;13816;53.628;9.950;2023-02-03T17:26:03;53.17;;;9.07;;
26040;SDS011;13816;53.628;9.950;2023-02-03T17:28:29;58.27;;;10.00;;
26040;SDS011;13816;53.628;9.950;2023-02-03T17:30:56;62.60;;;9.80;;
26040;SDS011;13816;53.628;9.950;2023-02-03T17:33:22;61.13;;;10.20;;
26040;SDS011;13816;53.628;9.950;2023-02-03T17:35:54;59.13;;;9.97;;
26040;SDS011;13816;53.628;9.950;2023-02-03T17:38:23;61.50;;;9.67;;
26040;SDS011;13816;53.628;9.950;2023-02-03T17:40:49;46.03;;;9.37;;
26040;SDS011;13816;53.628;9.950;2023-02-03T17:43:15;69.90;;;11.17;;
26040;SDS011;13816;53.628;9.950;2023-02-03T17:45:43;68.55;;;11.48;;
26040;SDS011;13816;53.628;9.950;2023-02-03T17:48:09;75.63;;;12.17;;
26040;SDS011;13816;53.628;9.950;2023-02-03T17:50:36;49.47;;;10.30;;
26040;SDS011;13816;53.628;9.950;2023-02-03T17:53:02;54.20;;;7.80;;
26040;SDS011;13816;53.628;9.950;2023-02-03T17:55:29;59.27;;;9.90;;
26040;SDS011;13816;53.628;9.950;2023-02-03T17:57:55;46.87;;;9.20;;
26040;SDS011;13816;53.628;9.950;2023-02-03T18:00:23;33.50;;;8.10;;
26040;SDS011;13816;53.628;9.950;2023-02-03T18:02:50;48.27;;;8.33;;
26040;SDS011;13816;53.628;9.950;2023-02-03T18:05:17;52.77;;;8.07;;
26040;SDS011;13816;53.628;9.950;2023-02-03T18:07:43;66.80;;;11.13;;
26040;SDS011;13816;53.628;9.950;2023-02-03T18:10:09;43.87;;;9.33;;